Time,TemperatureF,DewpointF,PressureIn,WindDirection,WindDirectionDegrees,WindSpeedMPH,WindSpeedGustMPH,Humidity,HourlyPrecipIn,Conditions,Clouds,dailyrainin,SoftwareType,DateUTC
2013-01-15 00:10:00,44.8,14.5,30.37,North,0,2.7,-999.0,29,-99.99,,,0.00,Acu-Link.com,2013-01-15 08:10:00,
2013-01-15 00:25:00,44.4,14.2,30.37,North,0,1.7,-999.0,29,-99.99,,,0.00,Acu-Link.com,2013-01-15 08:25:00,
2013-01-15 00:40:00,44.8,14.5,30.38,East,90,1.7,-999.0,29,-99.99,,,0.00,Acu-Link.com,2013-01-15 08:40:00,
2013-01-15 00:56:00,43.9,13.7,30.39,East,90,2.2,-999.0,29,-99.99,,,0.00,Acu-Link.com,2013-01-15 08:56:00,
2013-01-15 01:14:00,43.9,13.7,30.38,ESE,112,4.7,-999.0,29,-99.99,,,0.00,Acu-Link.com,2013-01-15 09:14:00,
2013-01-15 01:29:00,44.1,13.9,30.38,SSE,157,4.2,-999.0,29,-99.99,,,0.00,Acu-Link.com,2013-01-15 09:29:00,
2013-01-15 01:44:00,43.3,13.2,30.39,East,90,2.2,-999.0,29,-99.99,,,0.00,Acu-Link.com,2013-01-15 09:44:00,
2013-01-15 01:59:00,43.2,13.1,30.40,East,90,2.2,-999.0,29,-99.99,,,0.00,Acu-Link.com,2013-01-15 09:59:00,
2013-01-15 02:14:00,42.4,12.4,30.40,NNE,22,2.2,-999.0,29,-99.99,,,0.00,Acu-Link.com,2013-01-15 10:14:00,
2013-01-15 02:29:00,41.7,11.8,30.40,NE,45,0.0,-999.0,29,-99.99,,,0.00,Acu-Link.com,2013-01-15 10:29:00,
2013-01-15 02:44:00,40.8,11.8,30.40,NE,45,1.7,-999.0,30,-99.99,,,0.00,Acu-Link.com,2013-01-15 10:44:00,
2013-01-15 03:00:00,40.1,11.2,30.40,NE,45,1.7,-999.0,30,-99.99,,,0.00,Acu-Link.com,2013-01-15 11:00:00,
2013-01-15 03:15:00,39.9,11.7,30.40,NE,45,1.7,-999.0,31,-99.99,,,0.00,Acu-Link.com,2013-01-15 11:15:00,
2013-01-15 03:30:00,38.8,11.5,30.40,NE,45,1.7,-999.0,32,-99.99,,,0.00,Acu-Link.com,2013-01-15 11:30:00,
2013-01-15 03:45:00,37.8,12.0,30.40,NE,45,0.0,-999.0,34,-99.99,,,0.00,Acu-Link.com,2013-01-15 11:45:00,
2013-01-15 04:01:00,36.5,12.1,30.40,NE,45,1.7,-999.0,36,-99.99,,,0.00,Acu-Link.com,2013-01-15 12:01:00,
2013-01-15 04:16:00,36.3,13.2,30.40,NE,45,2.7,-999.0,38,-99.99,,,0.00,Acu-Link.com,2013-01-15 12:16:00,
2013-01-15 04:31:00,36.3,14.3,30.40,NE,45,2.2,-999.0,40,-99.99,,,0.00,Acu-Link.com,2013-01-15 12:31:00,
2013-01-15 04:46:00,37.2,15.1,30.39,NE,45,2.2,-999.0,40,-99.99,,,0.00,Acu-Link.com,2013-01-15 12:46:00,
2013-01-15 05:01:00,36.9,14.9,30.39,NE,45,1.7,-999.0,40,-99.99,,,0.00,Acu-Link.com,2013-01-15 13:01:00,
2013-01-15 05:17:00,36.1,14.1,30.40,NE,45,0.0,-999.0,40,-99.99,,,0.00,Acu-Link.com,2013-01-15 13:17:00,
2013-01-15 05:32:00,35.8,14.4,30.39,NE,45,1.7,-999.0,41,-99.99,,,0.00,Acu-Link.com,2013-01-15 13:32:00,
2013-01-15 05:47:00,35.2,15.0,30.40,NE,45,2.7,-999.0,43,-99.99,,,0.00,Acu-Link.com,2013-01-15 13:47:00,
2013-01-15 06:02:00,35.4,15.2,30.40,NE,45,1.7,-999.0,43,-99.99,,,0.00,Acu-Link.com,2013-01-15 14:02:00,
2013-01-15 06:17:00,36.3,16.0,30.41,NE,45,2.7,-999.0,43,-99.99,,,0.00,Acu-Link.com,2013-01-15 14:17:00,
2013-01-15 06:33:00,36.5,16.2,30.42,NE,45,0.0,-999.0,43,-99.99,,,0.00,Acu-Link.com,2013-01-15 14:33:00,
2013-01-15 06:48:00,36.3,16.0,30.41,NE,45,2.2,-999.0,43,-99.99,,,0.00,Acu-Link.com,2013-01-15 14:48:00,
2013-01-15 07:03:00,35.2,15.0,30.42,NE,45,0.0,-999.0,43,-99.99,,,0.00,Acu-Link.com,2013-01-15 15:03:00,
2013-01-15 07:18:00,35.4,15.7,30.43,NE,45,1.7,-999.0,44,-99.99,,,0.00,Acu-Link.com,2013-01-15 15:18:00,
2013-01-15 07:33:00,36.1,16.8,30.44,NE,45,1.1,-999.0,45,-99.99,,,0.00,Acu-Link.com,2013-01-15 15:33:00,
2013-01-15 07:49:00,41.9,21.1,30.44,NE,45,0.0,-999.0,43,-99.99,,,0.00,Acu-Link.com,2013-01-15 15:49:00,
2013-01-15 08:04:00,46.4,24.0,30.45,NE,45,0.0,-999.0,41,-99.99,,,0.00,Acu-Link.com,2013-01-15 16:04:00,
2013-01-15 08:19:00,50.2,26.2,30.46,NNE,22,0.0,-999.0,39,-99.99,,,0.00,Acu-Link.com,2013-01-15 16:19:00,
2013-01-15 08:34:00,53.8,28.1,30.46,North,0,0.0,-999.0,37,-99.99,,,0.00,Acu-Link.com,2013-01-15 16:34:00,
2013-01-15 08:49:00,54.1,27.1,30.46,North,0,3.2,-999.0,35,-99.99,,,0.00,Acu-Link.com,2013-01-15 16:49:00,
2013-01-15 09:05:00,55.6,27.7,30.46,SE,135,1.7,-999.0,34,-99.99,,,0.00,Acu-Link.com,2013-01-15 17:05:00,
2013-01-15 09:20:00,56.5,27.8,30.46,NNW,337,6.8,-999.0,33,-99.99,,,0.00,Acu-Link.com,2013-01-15 17:20:00,
2013-01-15 09:35:00,57.9,28.2,30.47,SE,135,3.2,-999.0,32,-99.99,,,0.00,Acu-Link.com,2013-01-15 17:35:00,
2013-01-15 09:50:00,59.2,29.4,30.46,North,0,2.7,-999.0,32,-99.99,,,0.00,Acu-Link.com,2013-01-15 17:50:00,
2013-01-15 10:06:00,58.5,28.0,30.46,East,90,5.3,-999.0,31,-99.99,,,0.00,Acu-Link.com,2013-01-15 18:06:00,
2013-01-15 10:21:00,59.4,28.8,30.46,NNW,337,2.7,-999.0,31,-99.99,,,0.00,Acu-Link.com,2013-01-15 18:21:00,
2013-01-15 10:36:00,60.8,29.2,30.45,North,0,2.7,-999.0,30,-99.99,,,0.00,Acu-Link.com,2013-01-15 18:36:00,
2013-01-15 10:51:00,61.9,30.1,30.44,ESE,112,6.8,-999.0,30,-99.99,,,0.00,Acu-Link.com,2013-01-15 18:51:00,
2013-01-15 11:06:00,63.5,31.5,30.42,SE,135,3.2,-999.0,30,-99.99,,,0.00,Acu-Link.com,2013-01-15 19:06:00,
2013-01-15 11:22:00,62.8,30.9,30.41,SSE,157,2.2,-999.0,30,-99.99,,,0.00,Acu-Link.com,2013-01-15 19:22:00,
2013-01-15 11:37:00,63.5,31.5,30.40,SE,135,5.3,-999.0,30,-99.99,,,0.00,Acu-Link.com,2013-01-15 19:37:00,
2013-01-15 11:52:00,63.0,31.1,30.39,NNW,337,2.2,-999.0,30,-99.99,,,0.00,Acu-Link.com,2013-01-15 19:52:00,
2013-01-15 12:07:00,63.5,31.5,30.37,ESE,112,5.3,-999.0,30,-99.99,,,0.00,Acu-Link.com,2013-01-15 20:07:00,
2013-01-15 12:22:00,64.8,31.8,30.37,North,0,2.2,-999.0,29,-99.99,,,0.00,Acu-Link.com,2013-01-15 20:22:00,
2013-01-15 12:38:00,65.7,32.6,30.36,NNE,22,3.7,-999.0,29,-99.99,,,0.00,Acu-Link.com,2013-01-15 20:38:00,
2013-01-15 12:53:00,65.7,32.6,30.35,ESE,112,5.3,-999.0,29,-99.99,,,0.00,Acu-Link.com,2013-01-15 20:53:00,
2013-01-15 13:08:00,66.9,33.6,30.35,ESE,112,6.3,-999.0,29,-99.99,,,0.00,Acu-Link.com,2013-01-15 21:08:00,
2013-01-15 13:23:00,67.1,33.8,30.35,North,0,3.2,-999.0,29,-99.99,,,0.00,Acu-Link.com,2013-01-15 21:23:00,
2013-01-15 13:38:00,66.2,33.0,30.35,North,0,1.7,-999.0,29,-99.99,,,0.00,Acu-Link.com,2013-01-15 21:38:00,
2013-01-15 13:54:00,66.2,33.0,30.35,NNW,337,1.1,-999.0,29,-99.99,,,0.00,Acu-Link.com,2013-01-15 21:54:00,
2013-01-15 14:09:00,66.2,33.0,30.35,North,0,5.3,-999.0,29,-99.99,,,0.00,Acu-Link.com,2013-01-15 22:09:00,
2013-01-15 14:24:00,66.2,33.0,30.34,SE,135,3.7,-999.0,29,-99.99,,,0.00,Acu-Link.com,2013-01-15 22:24:00,
2013-01-15 14:39:00,66.0,32.8,30.35,ESE,112,6.3,-999.0,29,-99.99,,,0.00,Acu-Link.com,2013-01-15 22:39:00,
2013-01-15 14:55:00,65.1,32.1,30.34,ESE,112,1.7,-999.0,29,-99.99,,,0.00,Acu-Link.com,2013-01-15 22:55:00,
2013-01-15 15:10:00,66.0,32.8,30.34,North,0,2.2,-999.0,29,-99.99,,,0.00,Acu-Link.com,2013-01-15 23:10:00,
2013-01-15 15:25:00,63.1,30.3,30.35,South,180,4.2,-999.0,29,-99.99,,,0.00,Acu-Link.com,2013-01-15 23:25:00,
2013-01-15 15:40:00,61.0,30.9,30.35,SW,225,2.7,-999.0,32,-99.99,,,0.00,Acu-Link.com,2013-01-15 23:40:00,
2013-01-15 15:55:00,60.1,30.9,30.36,SSE,157,2.7,-999.0,33,-99.99,,,0.00,Acu-Link.com,2013-01-15 23:55:00,
2013-01-15 16:11:00,59.7,31.3,30.36,SW,225,2.2,-999.0,34,-99.99,,,0.00,Acu-Link.com,2013-01-16 00:11:00,
2013-01-15 16:26:00,58.1,31.3,30.35,SW,225,0.0,-999.0,36,-99.99,,,0.00,Acu-Link.com,2013-01-16 00:26:00,
2013-01-15 16:41:00,56.7,30.1,30.35,NNW,337,0.0,-999.0,36,-99.99,,,0.00,Acu-Link.com,2013-01-16 00:41:00,
2013-01-15 16:57:00,54.9,29.8,30.36,NNW,337,1.7,-999.0,38,-99.99,,,0.00,Acu-Link.com,2013-01-16 00:57:00,
2013-01-15 17:12:00,53.1,30.0,30.36,NNW,337,1.7,-999.0,41,-99.99,,,0.00,Acu-Link.com,2013-01-16 01:12:00,
2013-01-15 17:27:00,52.3,30.5,30.37,NNW,337,0.0,-999.0,43,-99.99,,,0.00,Acu-Link.com,2013-01-16 01:27:00,
2013-01-15 17:51:00,50.2,30.8,30.38,NNW,337,1.1,-999.0,47,-99.99,,,0.00,Acu-Link.com,2013-01-16 01:51:00,
2013-01-15 18:29:00,47.7,31.4,30.38,NNW,337,0.0,-999.0,53,-99.99,,,0.00,Acu-Link.com,2013-01-16 02:29:00,
2013-01-15 18:49:00,45.9,31.1,30.39,NNW,337,0.0,-999.0,56,-99.99,,,0.00,Acu-Link.com,2013-01-16 02:49:00,
2013-01-15 19:05:00,44.6,31.2,30.38,NNW,337,0.0,-999.0,59,-99.99,,,0.00,Acu-Link.com,2013-01-16 03:05:00,
2013-01-15 19:24:00,44.1,31.1,30.38,NNW,337,0.0,-999.0,60,-99.99,,,0.00,Acu-Link.com,2013-01-16 03:24:00,
2013-01-15 19:44:00,43.3,31.2,30.38,NNW,337,0.0,-999.0,62,-99.99,,,0.00,Acu-Link.com,2013-01-16 03:44:00,
2013-01-15 20:18:00,48.4,32.1,30.33,NNW,337,2.2,-999.0,53,-99.99,,,0.00,Acu-Link.com,2013-01-16 04:18:00,
2013-01-15 20:39:00,47.8,30.1,30.32,ESE,112,3.2,-999.0,50,-99.99,,,0.00,Acu-Link.com,2013-01-16 04:39:00,
2013-01-15 20:58:00,49.5,30.1,30.32,East,90,2.2,-999.0,47,-99.99,,,0.00,Acu-Link.com,2013-01-16 04:58:00,
2013-01-15 21:14:00,52.0,29.0,30.32,ESE,112,4.2,-999.0,41,-99.99,,,0.00,Acu-Link.com,2013-01-16 05:14:00,
2013-01-15 21:29:00,54.3,29.9,30.34,SSE,157,3.2,-999.0,39,-99.99,,,0.00,Acu-Link.com,2013-01-16 05:29:00,
2013-01-15 21:45:00,54.1,29.1,30.34,SE,135,1.7,-999.0,38,-99.99,,,0.00,Acu-Link.com,2013-01-16 05:45:00,
2013-01-15 22:00:00,54.9,29.1,30.35,NNW,337,1.7,-999.0,37,-99.99,,,0.00,Acu-Link.com,2013-01-16 06:00:00,
2013-01-15 22:15:00,54.9,28.5,30.35,North,0,2.7,-999.0,36,-99.99,,,0.00,Acu-Link.com,2013-01-16 06:15:00,
2013-01-15 22:30:00,54.7,28.3,30.36,North,0,4.2,-999.0,36,-99.99,,,0.00,Acu-Link.com,2013-01-16 06:30:00,
2013-01-15 22:45:00,54.3,27.9,30.37,ESE,112,1.1,-999.0,36,-99.99,,,0.00,Acu-Link.com,2013-01-16 06:45:00,
2013-01-15 23:01:00,53.4,27.1,30.36,ESE,112,1.1,-999.0,36,-99.99,,,0.00,Acu-Link.com,2013-01-16 07:01:00,
2013-01-15 23:16:00,53.2,26.9,30.37,SE,135,1.1,-999.0,36,-99.99,,,0.00,Acu-Link.com,2013-01-16 07:16:00,
2013-01-15 23:31:00,52.9,26.7,30.37,SSE,157,1.1,-999.0,36,-99.99,,,0.00,Acu-Link.com,2013-01-16 07:31:00,
2013-01-15 23:46:00,51.8,25.7,30.37,SSE,157,0.0,-999.0,36,-99.99,,,0.00,Acu-Link.com,2013-01-16 07:46:00,